Latest Coastal Weather Observations for Yamba

IDN60701

Issued at 4:11 am EDT Wednesday 18 October 2017 (issued every 10 minutes, with the page automatically refreshed every 10 minutes)

About coastal observations | Map of coastal stations | Coastal observations for NSW | Marine services | Other Formats
Station Details ID: 058012 Name: YAMBA PILOT STATION Lat: -29.43 Lon: 153.36 Height: 27.4 m
Data from the previous 72 hours. | See also: Recent months at Yamba
Date/Time
EDT
Temp
°C
Wind Pressure Rain since
9am
mm
Weather Cloud Vis
km
Sea
Height
m
Swell
Dir  Spd
kts
Gust
kts
hPa Trend Height
m
Period
s
Dir
18/04:00am 19.9 ESE 14 19 1024.8 - 0.2 - - - - - - -
18/03:30am 20.4 ESE 13 18 1024.6 - 0.2 - - - - - - -
18/03:00am 19.9 E 9 16 1024.8 - 0.2 - - - - - - -
18/02:30am 20.1 ESE 13 19 1025.0 - 0.2 - - - - - - -
18/02:00am 20.2 ESE 13 18 1025.4 - 0.2 - - - - - - -
18/01:30am 19.4 E 11 19 1025.8 - 0.0 - - - - - - -
18/01:00am 20.2 E 9 13 1026.0 - 0.0 - - - - - - -
18/12:30am 20.2 E 8 13 1026.3 - 0.0 - - - - - - -
18/12:00am 20.4 E 9 13 1026.4 - 0.0 - - - - - - -
 
Date/Time
EDT
Temp
°C
Wind Pressure Rain since
9am
mm
Weather Cloud Vis
km
Sea
Height
m
Swell
Dir  Spd
kts
Gust
kts
hPa Trend Height
m
Period
s
Dir
17/11:30pm 20.3 E 9 13 1026.3 - 0.0 - - - - - - -
17/11:00pm 20.3 E 10 15 1026.1 - 0.0 - - - - - - -
17/10:30pm 20.1 ESE 11 15 1026.2 - 0.0 - - - - - - -
17/10:00pm 20.6 E 11 16 1026.2 - 0.0 - - - - - - -
17/09:30pm 20.6 E 13 19 1026.1 - 0.0 - - - - - - -
17/09:00pm 20.5 E 13 19 1025.8 - 0.0 - - - - - - -
17/08:30pm 20.1 E 13 19 1025.4 - 0.0 - - - - - - -
17/08:00pm 20.5 ESE 15 20 1025.3 - 0.0 - - - - - - -
17/07:30pm 20.5 ESE 13 18 1024.9 - 0.0 - - - - - - -
17/07:00pm 20.5 ESE 14 20 1024.9 - 0.0 - - - - - - -
17/06:30pm 20.6 ESE 12 17 1024.8 - 0.0 - - - - - - -
17/06:00pm 20.6 ESE 14 20 1024.4 - 0.0 - - - - - - -
17/05:30pm 20.9 ESE 12 18 1024.4 - 0.0 - - - - - - -
17/05:00pm 21.0 ESE 11 18 1023.8 - 0.0 - - - - - - -
17/04:30pm 20.9 ESE 13 17 1023.8 - 0.0 - - - - - - -
17/04:00pm 20.8 ESE 15 19 1023.7 - 0.0 - - - - - - -
17/03:30pm 21.1 ESE 13 19 1023.6 - 0.0 - - - - - - -
17/03:00pm 21.0 E 12 15 1023.9 - 0.0 - - - - - - -
17/02:30pm 21.2 ESE 13 18 1024.2 - 0.0 - - - - - - -
17/02:00pm 21.3 E 13 17 1024.3 - 0.0 - - - - - - -
17/01:30pm 21.4 E 13 17 1024.4 - 0.0 - - - - - - -
17/01:00pm 21.5 ESE 12 17 1024.7 - 0.0 - - - - - - -
17/12:30pm 21.2 ESE 14 18 1024.8 - 0.0 - - - - - - -
17/12:00pm 21.2 E 14 19 1025.3 - 0.0 - - - - - - -
17/11:30am 21.3 ESE 15 20 1025.4 - 0.0 - - - - - - -
17/11:00am 21.6 ESE 12 18 1025.2 - 0.0 - - - - - - -
17/10:30am 21.9 ESE 14 19 1025.1 - 0.0 - - - - - - -
17/10:00am 21.5 ESE 14 21 1025.4 - 0.0 - - - - - - -
17/09:30am 21.6 ESE 15 21 1025.0 - 0.0 - - - - - - -
17/09:00am 22.2 ESE 17 23 1024.6 - 14.8 - - - - - - -
17/08:30am 21.1 ESE 15 22 1024.4 - 14.8 - - - - - - -
17/08:00am 20.7 ESE 17 22 1024.2 - 14.8 - - - - - - -
17/07:30am 20.4 ESE 17 23 1024.2 - 14.8 - - - - - - -
17/07:00am 20.4 ESE 16 23 1024.0 - 14.8 - - - - - - -
17/06:30am 20.1 ESE 17 23 1023.6 - 14.8 - - - - - - -
17/06:00am 20.1 ESE 17 23 1023.4 - 14.8 - - - - - - -
17/05:30am 20.2 ESE 16 22 1023.3 - 14.8 - - - - - - -
17/05:00am 20.2 ESE 16 22 1023.0 - 14.8 - - - - - - -
17/04:30am 20.2 ESE 14 20 1022.9 - 14.8 - - - - - - -
17/04:00am 20.2 ESE 14 21 1022.8 - 14.8 - - - - - - -
17/03:30am 20.3 ESE 14 20 1022.7 - 14.8 - - - - - - -
17/03:00am 20.4 ESE 16 21 1022.8 - 14.8 - - - - - - -
17/02:30am 20.3 ESE 15 22 1023.3 - 14.8 - - - - - - -
17/02:00am 20.2 ESE 14 21 1023.4 - 14.8 - - - - - - -
17/01:30am 20.2 ESE 13 20 1023.7 - 14.8 - - - - - - -
17/01:00am 20.4 ESE 15 23 1024.0 - 14.8 - - - - - - -
17/12:30am 20.4 ESE 15 22 1024.2 - 14.8 - - - - - - -
17/12:00am 20.1 ESE 17 22 1024.3 - 14.8 - - - - - - -
 
Date/Time
EDT
Temp
°C
Wind Pressure Rain since
9am
mm
Weather Cloud Vis
km
Sea
Height
m
Swell
Dir  Spd
kts
Gust
kts
hPa Trend Height
m
Period
s
Dir
16/11:30pm 20.3 ESE 17 22 1024.3 - 14.8 - - - - - - -
16/11:00pm 20.4 ESE 13 20 1024.3 - 14.8 - - - - - - -
16/10:30pm 20.6 ESE 15 21 1024.2 - 14.8 - - - - - - -
16/10:00pm 20.4 ESE 15 21 1024.3 - 14.8 - - - - - - -
16/09:30pm 20.4 ESE 16 22 1024.0 - 14.8 - - - - - - -
16/09:00pm 20.5 ESE 15 21 1023.9 - 14.8 - - - - - - -
16/08:30pm 20.5 ESE 16 22 1023.6 - 14.8 - - - - - - -
16/08:00pm 20.5 ESE 17 25 1023.3 - 14.8 - - - - - - -
16/07:30pm 20.5 ESE 17 23 1023.0 - 14.8 - - - - - - -
16/07:00pm 20.3 ESE 17 24 1023.0 - 14.8 - - - - - - -
16/06:30pm 19.9 ESE 20 27 1022.7 - 14.8 - - - - - - -
16/06:00pm 19.5 ESE 18 25 1022.5 - 14.8 Recent precip. - - - - - -
16/05:30pm 18.9 SE 23 28 1022.3 - 14.8 - - - - - - -
16/05:00pm 19.7 ESE 19 28 1022.3 - 14.6 - - - - - - -
16/04:49pm 20.4 ESE 17 27 1022.0 - 14.6 - - - - - - -
16/04:30pm 20.4 ESE 17 26 1021.8 - 14.6 - - - - - - -
16/04:00pm 19.9 ESE 16 24 1021.6 - 14.6 - - - - - - -
16/03:51pm 19.4 ESE 18 28 1021.6 - 14.6 - - - - - - -
16/03:30pm 18.8 SE 22 28 1021.9 - 14.6 - - - - - - -
16/03:00pm 18.6 ESE 20 27 1022.0 - 14.4 Rain - - - - - -
16/02:30pm 18.6 SE 20 26 1022.5 - 12.4 - - - - - - -
16/02:00pm 18.2 ESE 19 24 1022.7 - 12.4 - - - - - - -
16/01:30pm 18.4 SE 23 29 1022.9 - 8.2 - - - - - - -
16/01:00pm 18.7 SE 22 27 1023.0 - 5.2 - - - - - - -
16/12:30pm 18.9 SE 22 27 1023.3 - 5.0 - - - - - - -
16/12:00pm 18.8 SE 17 23 1023.5 - 3.8 Rain - - - - - -
16/11:30am 18.9 SE 20 26 1023.8 - 3.0 - - - - - - -
16/11:00am 18.3 SE 19 22 1024.0 - 2.6 - - - - - - -
16/10:30am 18.5 ESE 18 25 1023.9 - 2.2 - - - - - - -
16/10:00am 18.7 ESE 18 24 1023.8 - 1.8 - - - - - - -
16/09:42am 19.3 ESE 17 27 1023.7 - 1.4 - - - - - - -
16/09:30am 19.3 SE 21 28 1023.4 - 1.4 - - - - - - -
16/09:14am 19.0 ESE 17 27 1023.3 - 0.8 - - - - - - -
16/09:00am 20.2 SE 23 27 1023.0 - 0.4 - - - - - - -
16/08:30am 20.6 SE 22 29 1022.5 - 0.4 - - - - - - -
16/08:00am 20.6 SE 24 29 1022.2 - 0.4 - - - - - - -
16/07:44am 20.6 ESE 21 31 1021.8 - 0.4 - - - - - - -
16/07:30am 20.6 SE 24 30 1021.7 - 0.4 - - - - - - -
16/07:00am 20.5 ESE 21 30 1021.5 - 0.4 - - - - - - -
16/06:30am 20.4 ESE 20 28 1021.1 - 0.4 - - - - - - -
16/06:03am 20.5 ESE 18 29 1020.8 - 0.4 - - - - - - -
16/06:00am 20.6 ESE 17 24 1020.9 - 0.4 - - - - - - -
16/05:33am 20.3 ESE 18 29 1020.5 - 0.4 - - - - - - -
16/05:30am 20.4 ESE 18 26 1020.5 - 0.4 - - - - - - -
16/05:00am 20.4 ESE 16 23 1020.1 - 0.4 - - - - - - -
16/04:30am 20.7 ESE 16 21 1020.0 - 0.4 - - - - - - -
16/04:00am 20.7 ESE 16 22 1020.0 - 0.4 - - - - - - -
16/03:30am 20.7 ESE 17 24 1020.2 - 0.4 - - - - - - -
16/03:00am 20.8 ESE 15 22 1020.3 - 0.4 - - - - - - -
16/02:30am 20.7 ESE 14 20 1020.7 - 0.4 - - - - - - -
16/02:00am 20.6 ESE 14 20 1020.9 - 0.4 - - - - - - -
16/01:30am 20.6 ESE 13 19 1021.2 - 0.4 - - - - - - -
16/01:00am 20.6 ESE 13 23 1021.5 - 0.4 - - - - - - -
16/12:30am 20.7 ESE 13 19 1021.7 - 0.4 - - - - - - -
16/12:00am 20.6 ESE 15 21 1021.9 - 0.4 - - - - - - -
 
Date/Time
EDT
Temp
°C
Wind Pressure Rain since
9am
mm
Weather Cloud Vis
km
Sea
Height
m
Swell
Dir  Spd
kts
Gust
kts
hPa Trend Height
m
Period
s
Dir
15/11:30pm 20.6 ESE 15 21 1022.1 - 0.4 - - - - - - -
15/11:00pm 20.6 ESE 15 21 1022.1 - 0.4 - - - - - - -
15/10:30pm 20.7 ESE 16 22 1022.0 - 0.4 - - - - - - -
15/10:00pm 20.8 ESE 16 23 1022.1 - 0.4 - - - - - - -
15/09:30pm 20.8 ESE 15 22 1021.9 - 0.4 - - - - - - -
15/09:00pm 20.8 ESE 16 23 1021.8 - 0.4 - - - - - - -
15/08:30pm 20.9 ESE 16 22 1021.5 - 0.4 - - - - - - -
15/08:00pm 20.9 ESE 15 21 1021.3 - 0.4 - - - - - - -
15/07:30pm 20.8 ESE 15 22 1021.1 - 0.4 - - - - - - -
15/07:00pm 20.9 ESE 17 25 1020.8 - 0.4 - - - - - - -
15/06:30pm 21.0 ESE 15 21 1020.7 - 0.4 - - - - - - -
15/06:00pm 20.9 ESE 17 23 1020.2 - 0.4 - - - - - - -
15/05:30pm 21.2 ESE 17 23 1020.0 - 0.4 - - - - - - -
15/05:00pm 21.4 ESE 15 21 1019.8 - 0.4 - - - - - - -
15/04:30pm 21.4 ESE 14 21 1019.8 - 0.4 - - - - - - -
15/04:00pm 21.6 ESE 14 21 1019.7 - 0.4 - - - - - - -
15/03:30pm 21.5 ESE 16 22 1019.7 - 0.4 - - - - - - -
15/03:00pm 21.6 ESE 15 21 1019.7 - 0.4 - - - - - - -
15/02:30pm 21.4 ESE 17 23 1019.7 - 0.4 - - - - - - -
15/02:00pm 21.8 ESE 16 22 1019.9 - 0.4 - - - - - - -
15/01:30pm 21.5 ESE 18 24 1020.1 - 0.4 - - - - - - -
15/01:00pm 21.4 ESE 17 25 1020.3 - 0.4 - - - - - - -
15/12:30pm 20.8 E 14 22 1020.6 - 0.4 - - - - - - -
15/12:00pm 19.5 ESE 21 29 1020.9 - 0.4 Rain - - - - - -
15/11:50am 20.0 ESE 16 28 1020.9 - 0.0 - - - - - - -
15/11:30am 20.0 ESE 16 24 1021.1 - 0.0 - - - - - - -
15/11:05am 21.9 ESE 18 29 1020.9 - 0.0 - - - - - - -
15/11:00am 21.7 ESE 16 25 1020.9 - 0.0 - - - - - - -
15/10:30am 21.7 ESE 18 24 1020.8 - 0.0 - - - - - - -
15/10:00am 21.4 ESE 17 26 1020.7 - 0.0 - - - - - - -
15/09:30am 21.7 E 15 21 1020.6 - 0.0 - - - - - - -
15/09:00am 21.7 ESE 15 20 1020.3 - 82.8 - - - - - - -
15/08:30am 21.3 ESE 17 24 1020.1 - 82.8 - - - - - - -
15/08:00am 21.1 ESE 17 26 1019.8 - 82.8 - - - - - - -
15/07:30am 20.9 ESE 17 23 1019.4 - 82.8 - - - - - - -
15/07:00am 20.7 ESE 16 23 1019.2 - 82.8 - - - - - - -
15/06:30am 20.6 ESE 17 25 1018.9 - 82.8 - - - - - - -
15/06:00am 20.7 ESE 17 25 1018.6 - 82.8 - - - - - - -
15/05:30am 20.6 ESE 16 22 1018.3 - 82.8 - - - - - - -
15/05:22am 20.7 ESE 15 25 1018.3 - 82.8 - - - - - - -
15/05:00am 20.7 ESE 17 23 1018.1 - 82.8 - - - - - - -
15/04:30am 20.7 ESE 18 24 1018.1 - 82.8 - - - - - - -

Other Formats:

Comma delimited format used in spreadsheet applications
http://www.bom.gov.au/fwo/IDN60701/IDN60701.94589.axf

JavaScript Object Notation format (JSON) in row-major order
http://www.bom.gov.au/fwo/IDN60701/IDN60701.94589.json